Time;durP1;ratioP1;P1;durP2;ratioP2;P2;SDS_P1;SDS_P2;PMS_P1;PMS_P2;Temp;Humidity;BMP_temperature;BMP_pressure;BME280_temperature;BME280_humidity;BME280_pressure;Samples;Min_cycle;Max_cycle;Signal;HPM_P1;HPM_P2
2021/03/31 00:00:29;;;;;;;25.93;13.27;;;15.50;38.20;;;;;;5039456;28;20227;-79
2021/03/31 00:02:57;;;;;;;30.13;13.80;;;15.50;37.70;;;;;;5036294;28;20206;-80
2021/03/31 00:05:25;;;;;;;27.13;13.27;;;15.40;37.60;;;;;;5034715;28;20560;-80
2021/03/31 00:07:51;;;;;;;27.53;13.20;;;15.40;36.80;;;;;;5020463;28;20238;-80
2021/03/31 00:10:51;;;;;;;25.93;13.73;;;15.20;37.70;;;;;;5021519;28;20278;-80
2021/03/31 00:13:19;;;;;;;29.57;13.67;;;15.20;37.80;;;;;;5051838;28;20201;-80
2021/03/31 00:15:46;;;;;;;26.80;13.33;;;15.20;38.60;;;;;;5032329;28;20221;-79
2021/03/31 00:18:14;;;;;;;31.03;13.23;;;15.20;37.40;;;;;;5034674;28;20198;-79
2021/03/31 00:20:41;;;;;;;25.60;13.20;;;15.20;37.70;;;;;;5035808;28;20233;-79
2021/03/31 00:23:11;;;;;;;30.03;12.93;;;15.20;38.30;;;;;;5015303;28;20224;-79
2021/03/31 00:25:38;;;;;;;26.40;13.03;;;15.20;38.60;;;;;;5025829;28;20235;-80
2021/03/31 00:28:07;;;;;;;28.90;13.57;;;15.10;39.20;;;;;;5018943;28;20212;-80
2021/03/31 00:30:33;;;;;;;28.33;14.00;;;15.10;38.90;;;;;;5019767;28;20206;-80
2021/03/31 00:33:00;;;;;;;30.07;14.67;;;15.10;38.90;;;;;;5016872;28;20243;-80
2021/03/31 00:35:27;;;;;;;28.17;13.27;;;15.10;39.70;;;;;;5002454;28;20294;-80
2021/03/31 00:37:53;;;;;;;26.30;14.23;;;15.20;39.20;;;;;;5004534;28;20283;-80
2021/03/31 00:40:22;;;;;;;28.33;14.00;;;15.00;39.20;;;;;;5016558;28;20282;-80
2021/03/31 00:42:49;;;;;;;26.97;14.47;;;15.00;40.80;;;;;;5016506;28;20201;-80
2021/03/31 00:45:16;;;;;;;30.40;15.37;;;14.70;50.70;;;;;;4980822;28;20252;-80
2021/03/31 00:47:43;;;;;;;27.90;14.17;;;14.40;57.00;;;;;;5017006;28;20308;-80
2021/03/31 00:50:15;;;;;;;30.67;14.40;;;14.50;56.30;;;;;;5016579;28;20673;-80
2021/03/31 00:52:43;;;;;;;25.97;13.67;;;14.50;58.00;;;;;;5017439;28;20219;-80
2021/03/31 00:55:12;;;;;;;27.27;13.97;;;14.50;54.50;;;;;;5017783;28;20225;-80
2021/03/31 00:57:39;;;;;;;27.20;13.80;;;14.60;54.70;;;;;;4985019;28;20209;-80
2021/03/31 01:00:08;;;;;;;27.87;13.23;;;14.60;54.80;;;;;;4999208;28;20215;-80
2021/03/31 01:02:36;;;;;;;27.20;14.47;;;14.60;52.00;;;;;;5015610;28;20283;-80
2021/03/31 01:05:24;;;;;;;24.23;12.60;;;14.60;59.50;;;;;;5017115;28;20222;-80
2021/03/31 01:07:51;;;;;;;27.93;13.97;;;14.50;65.90;;;;;;5008599;28;20197;-80
2021/03/31 01:10:26;;;;;;;28.60;13.63;;;14.40;62.50;;;;;;5013937;28;20268;-80
2021/03/31 01:13:11;;;;;;;29.53;14.30;;;14.30;58.80;;;;;;5016443;28;20493;-80
2021/03/31 01:16:00;;;;;;;30.70;14.20;;;14.30;56.60;;;;;;5027930;28;20233;-80
2021/03/31 01:18:50;;;;;;;26.37;13.73;;;14.30;56.30;;;;;;5012992;28;20211;-80
2021/03/31 01:22:02;;;;;;;27.97;14.93;;;14.40;56.30;;;;;;5014184;28;20634;-80
2021/03/31 01:24:55;;;;;;;26.57;14.03;;;14.30;56.70;;;;;;5025445;28;20381;-80
2021/03/31 01:27:53;;;;;;;30.47;14.70;;;14.30;59.40;;;;;;5037508;28;20709;-81
2021/03/31 01:30:42;;;;;;;28.60;13.97;;;14.20;63.20;;;;;;5042335;28;20272;-80
2021/03/31 01:33:24;;;;;;;29.97;14.10;;;14.10;60.10;;;;;;5038086;28;20200;-80
2021/03/31 01:35:54;;;;;;;26.97;14.30;;;14.20;59.10;;;;;;5048629;28;20562;-80
2021/03/31 01:38:24;;;;;;;29.63;15.53;;;14.20;58.80;;;;;;5039603;28;20236;-80
2021/03/31 01:40:52;;;;;;;28.43;13.80;;;14.20;59.60;;;;;;5036183;28;20331;-80
2021/03/31 01:43:23;;;;;;;30.97;14.30;;;14.10;65.50;;;;;;5022748;28;20218;-80
2021/03/31 01:45:53;;;;;;;26.43;14.47;;;14.00;64.40;;;;;;5019518;28;20201;-80
2021/03/31 01:48:26;;;;;;;28.37;14.63;;;14.00;74.00;;;;;;5050843;28;20188;-80
2021/03/31 01:51:05;;;;;;;27.10;14.17;;;13.80;78.40;;;;;;5040223;28;20284;-80
2021/03/31 01:53:33;;;;;;;24.97;14.17;;;13.60;82.60;;;;;;5038037;28;20212;-80
2021/03/31 01:56:00;;;;;;;32.20;15.60;;;13.50;79.60;;;;;;5056186;28;20204;-80
2021/03/31 01:58:29;;;;;;;29.67;14.00;;;13.50;73.60;;;;;;5039445;28;20201;-80
2021/03/31 02:00:55;;;;;;;27.80;15.17;;;13.50;81.10;;;;;;5038936;28;20225;-80
2021/03/31 02:03:23;;;;;;;26.20;14.00;;;13.20;83.70;;;;;;5039559;28;20197;-80
2021/03/31 02:05:50;;;;;;;29.33;14.47;;;13.20;83.90;;;;;;5039498;28;20195;-80
2021/03/31 02:08:19;;;;;;;24.97;13.70;;;13.30;82.40;;;;;;5021622;28;20224;-79
2021/03/31 02:10:49;;;;;;;30.43;13.33;;;13.40;80.70;;;;;;5037563;28;20807;-79
2021/03/31 02:13:15;;;;;;;26.90;14.33;;;13.40;74.00;;;;;;5037143;28;20197;-79
2021/03/31 02:15:42;;;;;;;28.10;14.07;;;13.20;74.10;;;;;;5044879;28;20205;-79
2021/03/31 02:18:12;;;;;;;28.67;14.47;;;13.20;73.80;;;;;;5039089;28;20312;-79
2021/03/31 02:20:39;;;;;;;25.73;14.37;;;13.00;76.10;;;;;;5035486;28;20210;-80
2021/03/31 02:23:07;;;;;;;29.57;14.97;;;13.00;78.20;;;;;;5026153;28;20273;-80
2021/03/31 02:25:34;;;;;;;29.93;15.23;;;12.90;81.70;;;;;;5021987;28;20228;-80
2021/03/31 02:28:03;;;;;;;30.83;14.13;;;13.00;75.40;;;;;;5035010;28;20204;-80
2021/03/31 02:30:30;;;;;;;28.20;14.57;;;13.00;80.00;;;;;;5033551;28;20245;-80
2021/03/31 02:33:00;;;;;;;28.37;15.37;;;12.90;79.10;;;;;;5054924;28;20238;-80
2021/03/31 02:35:29;;;;;;;27.63;14.00;;;13.00;78.00;;;;;;5036540;28;20216;-80
2021/03/31 02:38:07;;;;;;;30.43;13.90;;;12.90;78.80;;;;;;5037982;28;20233;-80
2021/03/31 02:40:36;;;;;;;27.00;15.60;;;12.90;85.30;;;;;;5052836;28;20234;-80
2021/03/31 02:43:06;;;;;;;26.00;14.57;;;12.90;82.50;;;;;;5053257;28;20277;-79
2021/03/31 02:45:34;;;;;;;31.93;15.60;;;12.90;82.70;;;;;;5037538;28;20227;-79
2021/03/31 02:48:05;;;;;;;30.37;15.67;;;12.80;82.30;;;;;;5027886;28;20284;-80
2021/03/31 02:50:32;;;;;;;27.27;15.00;;;12.80;81.40;;;;;;5062850;28;20223;-78
2021/03/31 02:52:59;;;;;;;33.23;15.43;;;12.70;83.40;;;;;;5030910;28;20603;-79
2021/03/31 02:55:27;;;;;;;34.50;16.47;;;12.70;84.50;;;;;;5041007;28;20565;-79
2021/03/31 02:57:56;;;;;;;30.60;14.37;;;12.60;86.10;;;;;;5060477;28;20236;-80
2021/03/31 03:00:24;;;;;;;29.37;14.60;;;12.60;87.30;;;;;;5038401;28;20231;-80
2021/03/31 03:02:52;;;;;;;30.53;15.03;;;12.50;85.20;;;;;;5029173;28;20253;-80
2021/03/31 03:05:20;;;;;;;31.03;14.60;;;12.50;90.20;;;;;;5039197;28;20257;-80
2021/03/31 03:07:48;;;;;;;29.43;14.63;;;12.50;85.90;;;;;;5036311;28;20378;-80
2021/03/31 03:10:15;;;;;;;27.23;15.10;;;12.60;87.10;;;;;;5041018;28;20199;-80
2021/03/31 03:12:53;;;;;;;31.20;14.77;;;12.50;86.20;;;;;;5024620;28;20201;-80
2021/03/31 03:15:22;;;;;;;26.57;13.67;;;12.50;93.00;;;;;;5030931;28;20237;-80
2021/03/31 03:17:49;;;;;;;24.63;12.57;;;12.50;98.00;;;;;;5044516;28;20231;-80
2021/03/31 03:20:16;;;;;;;25.27;12.30;;;12.30;99.90;;;;;;5025089;28;20227;-80
2021/03/31 03:22:46;;;;;;;20.97;12.07;;;12.20;99.90;;;;;;5041383;28;20278;-80
2021/03/31 03:25:13;;;;;;;26.00;13.53;;;12.20;99.90;;;;;;5039961;28;20254;-80
2021/03/31 03:27:45;;;;;;;24.37;12.87;;;12.10;99.90;;;;;;5025821;28;20233;-80
2021/03/31 03:30:14;;;;;;;29.90;13.90;;;12.20;99.90;;;;;;5042392;28;20278;-81
2021/03/31 03:32:44;;;;;;;29.77;15.27;;;12.00;99.90;;;;;;5040231;28;20209;-80
2021/03/31 03:35:15;;;;;;;28.80;14.47;;;12.00;99.60;;;;;;5033913;28;20271;-80
2021/03/31 03:37:43;;;;;;;29.03;14.37;;;12.10;99.90;;;;;;5042083;28;20203;-80
2021/03/31 03:40:11;;;;;;;28.37;14.37;;;12.00;99.90;;;;;;5035282;28;20207;-79
2021/03/31 03:42:38;;;;;;;23.00;14.03;;;12.00;99.90;;;;;;5027558;28;20238;-79
2021/03/31 03:45:06;;;;;;;27.00;14.80;;;11.90;99.90;;;;;;5062159;28;20594;-79
2021/03/31 03:47:33;;;;;;;28.77;15.63;;;11.90;99.90;;;;;;5041248;28;20604;-79
2021/03/31 03:50:01;;;;;;;27.97;15.33;;;11.90;99.90;;;;;;5043262;28;20187;-79
2021/03/31 03:52:28;;;;;;;28.47;16.33;;;11.90;98.70;;;;;;5044092;28;20211;-80
2021/03/31 03:54:56;;;;;;;33.40;15.57;;;11.90;99.90;;;;;;5059171;28;20303;-80
2021/03/31 03:57:29;;;;;;;32.03;16.00;;;11.90;99.90;;;;;;5028093;28;20203;-79
2021/03/31 03:59:56;;;;;;;31.13;15.70;;;11.80;99.70;;;;;;5041124;28;20286;-79
2021/03/31 04:02:23;;;;;;;28.07;14.73;;;11.90;99.90;;;;;;5038611;28;20200;-80
2021/03/31 04:04:50;;;;;;;29.77;15.63;;;11.70;99.90;;;;;;5042048;28;20615;-80
2021/03/31 04:07:17;;;;;;;31.30;16.10;;;11.70;99.90;;;;;;5027078;28;20198;-80
2021/03/31 04:09:46;;;;;;;28.90;15.83;;;11.60;99.90;;;;;;5029602;28;20219;-80
2021/03/31 04:12:16;;;;;;;29.07;15.53;;;11.60;99.90;;;;;;5038353;28;20239;-80
2021/03/31 04:14:43;;;;;;;29.03;14.60;;;11.50;99.90;;;;;;5036724;28;20266;-80
2021/03/31 04:17:17;;;;;;;31.93;16.20;;;11.50;99.90;;;;;;5024571;28;20289;-80
2021/03/31 04:19:47;;;;;;;28.00;14.73;;;11.50;99.90;;;;;;5057165;28;20212;-80
2021/03/31 04:22:13;;;;;;;25.13;15.20;;;11.50;99.90;;;;;;5036840;28;20221;-80
2021/03/31 04:24:40;;;;;;;28.57;14.50;;;11.50;99.90;;;;;;5039752;28;20260;-80
2021/03/31 04:27:10;;;;;;;24.97;13.20;;;11.40;99.90;;;;;;5041761;28;20566;-80
2021/03/31 04:29:41;;;;;;;27.97;12.83;;;11.40;99.90;;;;;;5056618;28;20207;-80
2021/03/31 04:32:19;;;;;;;24.13;13.70;;;11.30;99.90;;;;;;5058769;28;20207;-80
2021/03/31 04:34:46;;;;;;;26.17;13.93;;;11.30;99.90;;;;;;5056952;28;20198;-80
2021/03/31 04:37:15;;;;;;;26.50;13.63;;;11.30;99.90;;;;;;5024697;28;20651;-80
2021/03/31 04:39:44;;;;;;;24.03;14.10;;;11.40;99.90;;;;;;5022356;28;20372;-79
2021/03/31 04:42:10;;;;;;;28.20;16.50;;;11.30;99.90;;;;;;5028216;28;20224;-79
2021/03/31 04:44:37;;;;;;;31.60;16.10;;;11.20;99.90;;;;;;5022679;28;20196;-79
2021/03/31 04:47:04;;;;;;;31.20;16.30;;;11.20;99.90;;;;;;5033330;28;20220;-79
2021/03/31 04:49:30;;;;;;;29.00;17.80;;;11.10;99.90;;;;;;5034738;28;20192;-79
2021/03/31 04:51:57;;;;;;;31.43;15.83;;;11.10;99.90;;;;;;5038039;28;20199;-80
2021/03/31 04:54:23;;;;;;;29.47;17.17;;;11.10;99.90;;;;;;5039676;28;20201;-79
2021/03/31 04:56:49;;;;;;;31.07;15.97;;;11.00;99.90;;;;;;5024450;28;20314;-81
2021/03/31 04:59:16;;;;;;;33.53;17.20;;;10.90;99.90;;;;;;5005781;28;20224;-80
2021/03/31 05:01:43;;;;;;;28.10;16.43;;;10.90;99.90;;;;;;5026030;28;20198;-80
2021/03/31 05:04:09;;;;;;;31.13;16.07;;;10.90;99.90;;;;;;5023657;28;20554;-80
2021/03/31 05:06:36;;;;;;;29.43;16.03;;;10.90;99.90;;;;;;5038624;28;20211;-80
2021/03/31 05:09:02;;;;;;;29.20;16.33;;;10.90;99.90;;;;;;5024831;28;20309;-80
2021/03/31 05:11:29;;;;;;;32.93;15.70;;;11.00;99.90;;;;;;5040981;28;20213;-79
2021/03/31 05:13:56;;;;;;;29.83;16.20;;;11.00;99.90;;;;;;5022840;28;20200;-80
2021/03/31 05:16:22;;;;;;;31.17;17.17;;;11.00;99.90;;;;;;5006219;28;20221;-79
2021/03/31 05:18:49;;;;;;;31.23;16.97;;;11.00;99.90;;;;;;5022564;28;20195;-79
2021/03/31 05:21:15;;;;;;;27.73;15.80;;;11.00;99.90;;;;;;5039342;28;20222;-80
2021/03/31 05:23:41;;;;;;;30.17;16.00;;;11.00;99.90;;;;;;5023607;28;20225;-80
2021/03/31 05:26:09;;;;;;;30.00;17.70;;;11.00;99.90;;;;;;5022738;28;20256;-80
2021/03/31 05:28:36;;;;;;;29.13;15.70;;;11.00;99.90;;;;;;5039200;28;20615;-80
2021/03/31 05:31:03;;;;;;;27.30;15.03;;;11.00;99.90;;;;;;5036298;28;20206;-80
2021/03/31 05:33:30;;;;;;;27.57;15.73;;;11.00;99.90;;;;;;5019150;28;20203;-79
2021/03/31 05:35:56;;;;;;;33.77;16.87;;;10.90;99.90;;;;;;5017681;28;20212;-79
2021/03/31 05:38:23;;;;;;;25.17;14.03;;;11.00;99.90;;;;;;5036514;28;20335;-80
2021/03/31 05:40:49;;;;;;;32.23;13.47;;;11.00;99.90;;;;;;5054280;28;20308;-81
2021/03/31 05:43:17;;;;;;;24.17;13.70;;;11.10;99.90;;;;;;5038599;28;20260;-81
2021/03/31 05:45:45;;;;;;;26.77;14.40;;;11.10;99.90;;;;;;5037291;28;20225;-81
2021/03/31 05:48:12;;;;;;;25.63;14.17;;;11.20;99.90;;;;;;5034682;28;20203;-82
2021/03/31 05:50:39;;;;;;;28.70;15.40;;;11.00;99.90;;;;;;5044837;28;20635;-81
2021/03/31 05:53:05;;;;;;;29.37;16.03;;;11.00;99.90;;;;;;5037734;28;20208;-79
2021/03/31 05:55:32;;;;;;;29.23;15.47;;;11.10;99.90;;;;;;5024173;28;20298;-83
2021/03/31 05:57:59;;;;;;;30.60;15.00;;;11.10;99.90;;;;;;5038656;28;20212;-83
2021/03/31 06:00:26;;;;;;;25.33;14.30;;;11.20;99.90;;;;;;5018100;28;20326;-84
2021/03/31 06:02:53;;;;;;;25.90;14.63;;;11.20;99.90;;;;;;5037584;28;20209;-83
2021/03/31 06:05:19;;;;;;;27.13;14.90;;;11.20;99.90;;;;;;5037782;28;20206;-83
2021/03/31 06:07:48;;;;;;;25.27;13.93;;;11.20;99.90;;;;;;5041513;28;20207;-84
2021/03/31 06:10:28;;;;;;;23.97;13.87;;;11.40;99.90;;;;;;5022491;28;20208;-84
2021/03/31 06:12:58;;;;;;;29.83;14.67;;;11.40;99.90;;;;;;5041409;28;20203;-83
2021/03/31 06:15:34;;;;;;;28.57;13.97;;;11.40;99.90;;;;;;5035817;28;20199;-83
2021/03/31 06:18:16;;;;;;;26.67;14.03;;;11.40;99.90;;;;;;5034184;28;20290;-83
2021/03/31 06:20:58;;;;;;;24.10;14.40;;;11.50;99.90;;;;;;5022986;28;20227;-84
2021/03/31 06:26:24;;;;;;;26.37;13.70;;;11.70;99.80;;;;;;5056408;28;20217;-84
2021/03/31 06:28:54;;;;;;;24.40;13.57;;;11.90;97.30;;;;;;5037091;28;20202;-84
2021/03/31 06:31:45;;;;;;;21.80;13.27;;;12.00;98.40;;;;;;5039866;28;20196;-84
2021/03/31 06:34:27;;;;;;;24.63;13.47;;;12.20;98.20;;;;;;5058605;28;20573;-84
2021/03/31 06:37:13;;;;;;;24.97;14.30;;;12.40;99.90;;;;;;5028576;28;20251;-84
2021/03/31 06:39:43;;;;;;;24.43;13.53;;;12.50;98.20;;;;;;5026861;28;20224;-84
2021/03/31 06:42:15;;;;;;;21.47;13.13;;;12.60;95.20;;;;;;5038531;28;20292;-84
2021/03/31 06:47:38;;;;;;;21.77;12.57;;;13.00;86.80;;;;;;5042701;28;20196;-85
2021/03/31 06:50:10;;;;;;;23.73;12.73;;;13.10;84.80;;;;;;5037332;28;20310;-84
2021/03/31 06:52:57;;;;;;;23.13;13.10;;;13.40;79.80;;;;;;5033081;28;20197;-83
2021/03/31 06:55:26;;;;;;;23.80;13.83;;;13.70;78.40;;;;;;5032493;28;21013;-83
2021/03/31 06:58:11;;;;;;;25.47;13.23;;;13.80;75.10;;;;;;5036261;28;20208;-82
2021/03/31 07:00:39;;;;;;;21.23;12.70;;;13.90;72.90;;;;;;5021569;28;20213;-82
2021/03/31 07:03:08;;;;;;;24.57;13.50;;;14.10;72.60;;;;;;5035047;28;20225;-83
2021/03/31 07:05:39;;;;;;;22.83;13.40;;;14.40;73.50;;;;;;5054539;28;20198;-85
2021/03/31 07:08:10;;;;;;;23.93;13.20;;;14.60;70.80;;;;;;5055708;28;20204;-85
2021/03/31 07:10:43;;;;;;;19.97;12.40;;;14.70;68.80;;;;;;5038917;28;20555;-84
2021/03/31 07:13:10;;;;;;;18.50;12.57;;;14.70;64.70;;;;;;5042480;28;20506;-85
2021/03/31 07:15:37;;;;;;;19.23;11.93;;;15.00;64.10;;;;;;5038249;28;20198;-84
2021/03/31 07:18:05;;;;;;;22.57;13.23;;;15.20;60.40;;;;;;5049124;28;20288;-85
2021/03/31 07:20:39;;;;;;;19.83;13.60;;;14.90;55.10;;;;;;5024235;28;20229;-84
2021/03/31 07:23:05;;;;;;;23.17;12.90;;;15.10;55.00;;;;;;5033694;28;20220;-85
2021/03/31 07:25:32;;;;;;;21.10;13.07;;;15.40;55.90;;;;;;5042633;28;20281;-84
2021/03/31 07:28:01;;;;;;;19.13;12.90;;;15.60;55.60;;;;;;5043294;28;20219;-84
2021/03/31 07:30:27;;;;;;;20.60;12.67;;;15.90;56.30;;;;;;5022226;28;20291;-84
2021/03/31 07:33:15;;;;;;;25.07;13.33;;;16.10;49.30;;;;;;5060635;28;20228;-85
2021/03/31 07:35:42;;;;;;;16.57;11.83;;;16.10;51.90;;;;;;5042170;28;20208;-85
2021/03/31 07:38:12;;;;;;;19.93;12.27;;;15.70;48.30;;;;;;5037736;28;20195;-86
2021/03/31 07:40:40;;;;;;;20.77;12.13;;;16.10;51.40;;;;;;5040601;28;20275;-82
2021/03/31 07:43:08;;;;;;;21.10;12.90;;;16.40;48.30;;;;;;5028148;28;20227;-82
2021/03/31 07:45:41;;;;;;;22.53;13.43;;;16.60;45.70;;;;;;5045661;28;20190;-81
2021/03/31 07:48:08;;;;;;;19.53;12.43;;;16.80;46.20;;;;;;5043130;28;20230;-81
2021/03/31 07:50:35;;;;;;;22.40;12.80;;;17.20;44.30;;;;;;5043084;28;20625;-81
2021/03/31 07:53:03;;;;;;;19.07;12.40;;;17.20;43.00;;;;;;5042142;28;20238;-80
2021/03/31 07:55:35;;;;;;;18.30;12.43;;;17.40;42.80;;;;;;5041804;28;20286;-80
2021/03/31 07:58:20;;;;;;;18.40;12.33;;;17.60;38.60;;;;;;5043135;28;20204;-82
2021/03/31 08:00:47;;;;;;;20.47;12.27;;;17.90;41.20;;;;;;5056200;28;20215;-81
2021/03/31 08:03:37;;;;;;;17.63;11.57;;;18.00;40.50;;;;;;5036747;28;20252;-81
2021/03/31 08:06:08;;;;;;;18.63;11.80;;;18.30;42.00;;;;;;5056599;28;20645;-81
2021/03/31 08:08:44;;;;;;;20.20;12.77;;;18.50;41.30;;;;;;5057486;28;20208;-81
2021/03/31 08:11:12;;;;;;;17.30;12.57;;;18.60;36.50;;;;;;5059753;28;20206;-80
2021/03/31 08:13:45;;;;;;;19.67;11.93;;;18.90;39.90;;;;;;5042886;28;20205;-80
2021/03/31 08:16:33;;;;;;;18.93;12.03;;;19.00;37.50;;;;;;5041363;28;20606;-79
2021/03/31 08:19:03;;;;;;;19.43;12.03;;;19.40;38.70;;;;;;5043039;28;20206;-80
2021/03/31 08:21:32;;;;;;;20.57;12.43;;;19.70;36.60;;;;;;5067714;28;20209;-81
2021/03/31 08:24:02;;;;;;;16.03;11.53;;;20.00;33.20;;;;;;5041940;28;20231;-80
2021/03/31 08:26:32;;;;;;;19.43;12.30;;;20.00;35.30;;;;;;5032058;28;20253;-81
2021/03/31 08:29:01;;;;;;;15.83;10.87;;;20.00;27.50;;;;;;5036970;28;20213;-81
2021/03/31 08:31:30;;;;;;;18.57;10.90;;;19.90;34.70;;;;;;5028095;28;20210;-81
2021/03/31 08:33:56;;;;;;;15.97;10.73;;;20.50;30.80;;;;;;5053816;28;20630;-81
2021/03/31 08:36:23;;;;;;;19.67;10.27;;;20.80;31.00;;;;;;5023843;28;20202;-80
2021/03/31 08:38:54;;;;;;;17.57;11.30;;;20.90;30.70;;;;;;5034151;28;20226;-80
2021/03/31 08:41:24;;;;;;;19.07;11.27;;;21.30;28.30;;;;;;5011081;28;20277;-80
2021/03/31 08:43:52;;;;;;;18.37;9.90;;;21.10;28.20;;;;;;5058030;28;20206;-81
2021/03/31 08:46:31;;;;;;;17.27;10.50;;;21.50;25.30;;;;;;5041363;28;20199;-81
2021/03/31 08:48:58;;;;;;;16.97;10.43;;;21.90;24.90;;;;;;5039514;28;20215;-80
2021/03/31 08:51:24;;;;;;;22.00;10.57;;;22.10;22.70;;;;;;5029316;28;20269;-80
2021/03/31 08:53:51;;;;;;;18.97;10.80;;;22.10;20.60;;;;;;5036134;28;20211;-80
2021/03/31 08:56:22;;;;;;;15.63;10.90;;;22.20;25.00;;;;;;5062028;28;20195;-80
2021/03/31 08:58:55;;;;;;;14.57;9.97;;;22.00;17.70;;;;;;5044091;28;20200;-80
2021/03/31 09:01:30;;;;;;;13.80;10.50;;;21.10;17.70;;;;;;5064433;28;20226;-80
2021/03/31 09:04:18;;;;;;;16.03;9.97;;;21.10;17.20;;;;;;5042524;28;20204;-80
2021/03/31 09:06:44;;;;;;;18.00;10.50;;;22.20;19.50;;;;;;5041885;28;20212;-81
2021/03/31 09:09:12;;;;;;;17.03;10.10;;;22.70;19.50;;;;;;5036500;28;20193;-80
2021/03/31 09:11:39;;;;;;;16.47;10.87;;;22.00;15.00;;;;;;5039872;28;20294;-81
2021/03/31 09:14:36;;;;;;;15.10;9.90;;;22.10;19.40;;;;;;5041618;28;20195;-81
2021/03/31 09:17:24;;;;;;;15.60;10.60;;;22.20;17.80;;;;;;5037448;28;20564;-80
2021/03/31 09:19:58;;;;;;;15.03;10.63;;;22.90;16.90;;;;;;5045057;28;20234;-83
2021/03/31 09:22:28;;;;;;;14.87;9.53;;;22.80;12.60;;;;;;5023648;28;20218;-80
2021/03/31 09:24:58;;;;;;;13.47;9.53;;;23.30;16.80;;;;;;5037852;28;20779;-79
2021/03/31 09:27:28;;;;;;;14.77;9.43;;;23.70;12.70;;;;;;5033489;28;20248;-80
2021/03/31 09:29:56;;;;;;;14.13;10.10;;;23.00;11.60;;;;;;5047426;28;20197;-80
2021/03/31 09:32:32;;;;;;;15.10;9.93;;;22.60;13.80;;;;;;5046691;28;20201;-80
2021/03/31 09:35:04;;;;;;;15.03;10.07;;;23.60;15.00;;;;;;5030091;28;20345;-83
2021/03/31 09:37:41;;;;;;;13.97;9.23;;;23.20;10.70;;;;;;5034803;28;20212;-80
2021/03/31 09:40:31;;;;;;;10.97;9.67;;;24.00;15.40;;;;;;5056833;28;20321;-81
2021/03/31 09:43:03;;;;;;;14.67;9.73;;;24.00;11.00;;;;;;5038554;28;20254;-80
2021/03/31 09:45:32;;;;;;;13.50;9.90;;;24.10;13.80;;;;;;5026400;28;20354;-80
2021/03/31 09:47:59;;;;;;;15.67;10.37;;;24.70;12.00;;;;;;5023876;28;20204;-79
2021/03/31 09:50:28;;;;;;;12.90;10.50;;;24.60;13.00;;;;;;5039269;28;20586;-79
2021/03/31 09:52:56;;;;;;;14.73;10.50;;;24.50;11.40;;;;;;5039994;28;20207;-80
2021/03/31 09:55:23;;;;;;;17.73;9.73;;;24.40;9.50;;;;;;5036742;28;20213;-80
2021/03/31 09:57:51;;;;;;;15.37;10.63;;;24.50;12.30;;;;;;5022638;28;20218;-80
2021/03/31 10:00:20;;;;;;;15.43;10.93;;;24.30;11.90;;;;;;5036842;28;20648;-80
2021/03/31 10:02:47;;;;;;;16.23;10.37;;;24.50;9.50;;;;;;5057631;28;20199;-80
2021/03/31 10:05:20;;;;;;;14.20;10.90;;;24.00;10.90;;;;;;5039434;28;20633;-80
2021/03/31 10:08:09;;;;;;;12.63;9.00;;;24.00;10.20;;;;;;5024181;28;20203;-81
2021/03/31 10:10:41;;;;;;;14.77;10.90;;;24.20;9.40;;;;;;5036377;28;20200;-80
2021/03/31 10:13:08;;;;;;;15.40;10.70;;;24.10;9.40;;;;;;5024691;28;20226;-80
2021/03/31 10:15:35;;;;;;;15.70;11.67;;;24.50;10.80;;;;;;5037570;28;20299;-80
2021/03/31 10:18:03;;;;;;;13.63;10.07;;;24.90;9.90;;;;;;5033449;28;20655;-80
2021/03/31 10:20:40;;;;;;;16.17;11.73;;;25.00;10.20;;;;;;5033466;28;20211;-80
2021/03/31 10:23:19;;;;;;;17.30;11.50;;;24.70;9.10;;;;;;5055848;28;20246;-80
2021/03/31 10:26:18;;;;;;;15.83;10.07;;;24.10;10.20;;;;;;5043212;28;20237;-79
2021/03/31 10:28:49;;;;;;;16.73;10.77;;;24.60;7.60;;;;;;5037627;28;20203;-80
2021/03/31 10:31:38;;;;;;;21.30;10.47;;;24.60;7.40;;;;;;5041413;28;20199;-80
2021/03/31 10:34:36;;;;;;;15.67;10.93;;;24.60;9.10;;;;;;5038326;28;20281;-80
2021/03/31 10:37:22;;;;;;;14.57;10.73;;;25.00;9.50;;;;;;5037821;28;20199;-80
2021/03/31 10:51:23;;;;;;;18.60;12.00;;;25.20;8.50;;;;;;5028516;28;20197;-80
2021/03/31 10:54:06;;;;;;;16.37;11.20;;;25.30;8.10;;;;;;5031025;28;20202;-79
2021/03/31 10:56:50;;;;;;;18.67;12.10;;;25.20;7.30;;;;;;5036330;28;20270;-80
2021/03/31 10:59:16;;;;;;;17.13;11.93;;;25.20;6.30;;;;;;5022552;28;20207;-81
2021/03/31 11:01:43;;;;;;;20.20;12.53;;;24.80;6.90;;;;;;5017971;28;20719;-80
2021/03/31 11:04:09;;;;;;;19.60;12.30;;;24.80;6.70;;;;;;5030391;28;20209;-80
2021/03/31 11:06:36;;;;;;;18.73;12.03;;;25.30;7.60;;;;;;5016404;28;20206;-81
2021/03/31 11:09:03;;;;;;;18.93;11.70;;;25.70;5.40;;;;;;5025934;28;20209;-80
2021/03/31 11:11:29;;;;;;;19.80;12.13;;;25.50;7.20;;;;;;5022849;28;20995;-80
2021/03/31 11:13:55;;;;;;;19.63;11.37;;;26.10;6.20;;;;;;5034325;28;20206;-80
2021/03/31 11:16:22;;;;;;;25.53;12.43;;;26.10;4.60;;;;;;5024170;28;20235;-80
2021/03/31 11:26:48;;;;;;;20.93;12.63;;;26.10;3.30;;;;;;5064022;28;20234;-80
2021/03/31 11:29:15;;;;;;;21.90;12.73;;;26.20;2.80;;;;;;5031878;28;20197;-80
2021/03/31 11:31:41;;;;;;;22.80;13.10;;;26.30;3.20;;;;;;5041919;28;20217;-80
2021/03/31 11:34:08;;;;;;;22.83;13.57;;;27.00;1.00;;;;;;5039086;28;20233;-80
2021/03/31 11:36:34;;;;;;;22.17;12.90;;;26.80;1.00;;;;;;5024976;28;20188;-81
2021/03/31 11:39:02;;;;;;;23.50;13.37;;;27.20;1.00;;;;;;5030595;28;20296;-80
2021/03/31 11:41:28;;;;;;;21.93;13.40;;;27.30;1.00;;;;;;5026324;28;20231;-81
2021/03/31 11:43:55;;;;;;;21.53;12.50;;;27.60;1.00;;;;;;5041665;28;20205;-81
2021/03/31 11:46:21;;;;;;;24.07;12.93;;;27.30;1.00;;;;;;5047350;28;20198;-80
2021/03/31 11:48:49;;;;;;;24.87;14.50;;;27.70;1.00;;;;;;5025534;28;20622;-80
2021/03/31 11:51:15;;;;;;;24.83;14.53;;;27.80;1.00;;;;;;5024838;28;20214;-80
2021/03/31 11:53:42;;;;;;;22.50;13.83;;;27.70;1.00;;;;;;5039175;28;20571;-80
2021/03/31 11:56:08;;;;;;;25.97;13.77;;;27.80;1.00;;;;;;5039270;28;20547;-80
2021/03/31 11:58:35;;;;;;;23.03;13.20;;;27.80;1.00;;;;;;5039433;28;20232;-82
2021/03/31 12:01:04;;;;;;;23.80;12.70;;;28.10;1.00;;;;;;5030483;28;20223;-80
2021/03/31 12:03:30;;;;;;;27.53;13.87;;;28.30;1.00;;;;;;5042171;28;20200;-80
2021/03/31 12:05:57;;;;;;;22.40;12.70;;;28.20;1.00;;;;;;5035978;28;20638;-81
2021/03/31 12:08:23;;;;;;;17.00;10.27;;;27.70;1.00;;;;;;5040866;28;20202;-81
2021/03/31 12:10:50;;;;;;;20.40;11.30;;;27.20;1.00;;;;;;5038166;28;20566;-81
2021/03/31 12:13:17;;;;;;;24.23;11.03;;;27.30;1.00;;;;;;5042225;28;20283;-80
2021/03/31 12:15:43;;;;;;;17.33;10.90;;;27.90;1.00;;;;;;5039765;28;20673;-81
2021/03/31 12:18:11;;;;;;;22.00;10.90;;;27.50;1.00;;;;;;5006163;28;20281;-80
2021/03/31 12:20:37;;;;;;;18.23;11.03;;;27.60;1.00;;;;;;5023621;28;20235;-81
2021/03/31 12:23:04;;;;;;;19.70;11.07;;;27.90;1.00;;;;;;5041017;28;20219;-80
2021/03/31 12:25:31;;;;;;;18.47;11.10;;;27.90;1.00;;;;;;5039866;28;20264;-80
2021/03/31 12:28:00;;;;;;;18.88;10.95;;;26.70;1.00;;;;;;5058541;28;20189;-80
2021/03/31 12:30:27;;;;;;;18.93;11.67;;;26.40;1.00;;;;;;5040025;28;20203;-80
2021/03/31 12:32:53;;;;;;;20.90;11.47;;;26.30;1.00;;;;;;5033419;28;20259;-79
2021/03/31 12:35:21;;;;;;;22.63;12.83;;;26.10;1.00;;;;;;5043001;28;20741;-80
2021/03/31 12:37:48;;;;;;;20.17;12.47;;;26.50;1.00;;;;;;5042103;28;20280;-80
2021/03/31 12:40:16;;;;;;;21.73;11.87;;;26.30;1.00;;;;;;5039085;28;20223;-80
2021/03/31 12:42:43;;;;;;;19.07;11.17;;;26.70;1.00;;;;;;5022727;28;20196;-81
2021/03/31 12:45:10;;;;;;;24.50;12.03;;;26.40;1.00;;;;;;5018426;28;20203;-79
2021/03/31 12:47:39;;;;;;;18.03;10.97;;;26.50;1.00;;;;;;5021668;28;20724;-81
2021/03/31 12:50:07;;;;;;;20.00;11.13;;;26.70;1.00;;;;;;5021746;28;20198;-79
2021/03/31 12:55:07;;;;;;;16.00;9.17;;;27.10;1.00;;;;;;5051156;28;20237;-82
2021/03/31 12:57:33;;;;;;;21.60;11.00;;;26.60;1.00;;;;;;5026411;28;20210;-81
2021/03/31 13:00:02;;;;;;;17.80;9.93;;;26.50;1.00;;;;;;5027849;28;20218;-81
2021/03/31 13:02:49;;;;;;;17.77;10.13;;;26.40;1.00;;;;;;5027603;28;20236;-81
2021/03/31 13:05:37;;;;;;;17.63;10.70;;;27.20;1.00;;;;;;5041260;28;20287;-81
2021/03/31 13:08:11;;;;;;;21.55;11.63;;;27.30;1.00;;;;;;5054318;28;20718;-81
2021/03/31 13:10:57;;;;;;;16.80;10.80;;;27.40;1.00;;;;;;5037848;28;20212;-80
2021/03/31 13:22:23;;;;;;;16.90;10.80;;;26.90;1.00;;;;;;5038859;28;20206;-80
2021/03/31 13:30:32;;;;;;;23.90;14.10;;;27.90;1.00;;;;;;5004156;28;20196;-81